Madeline — WDE3220 — position and weather

sailwx.info

Track history (hours):
 
Tides and Currents Weather Stations Pressure Air Temp Water Temp Dewpoint Dewpoint Depression Visibility Wind Speed Wind Dir Waves Ship Positions

Madeline

Owner: TUG MADELINE, LLC, NEW CASTLE, DE. More information available from US FCC via Universal Licensing System and Coast Guard Vessel Documentation Center.

Last reported at 2015-May-26 03:33 UTC. Time now 2015-May-26 03:41 UTC.
Position N 39°53' W 075°11'.

; draft 4.6 m.

Type: Tug. MMSI: 367335830.

Date/timePositionNaut miles runAvg speedWind from/ knotsBaromVisibWave heightAir tempDewpointWater temp
2015-May-26 03:33N 39°53' W 075°11'0 0.0
2015-May-26 02:33N 39°53' W 075°11'0 0.0
2015-May-26 01:33N 39°53' W 075°11'0 0.0
2015-May-26 00:33N 39°53' W 075°11'0 0.0
2015-May-25 23:33N 39°53' W 075°11'0 0.0
2015-May-25 22:33N 39°53' W 075°11'0 0.0
2015-May-25 21:33N 39°53' W 075°11'0 0.0
2015-May-25 20:33N 39°53' W 075°11'0 0.0
2015-May-25 19:33N 39°53' W 075°11'0 0.0
2015-May-25 18:33N 39°53' W 075°11'0 0.0
2015-May-25 17:33N 39°53' W 075°11'0 0.0
2015-May-25 16:33N 39°53' W 075°11'0 0.0
2015-May-25 15:33N 39°53' W 075°11'0 0.0
2015-May-25 14:33N 39°53' W 075°11'0 0.0
2015-May-25 13:33N 39°53' W 075°11'0 0.0
2015-May-25 12:33N 39°53' W 075°11'0 0.0
2015-May-25 11:33N 39°53' W 075°11'0 0.0
2015-May-25 10:33N 39°53' W 075°11'0 0.0
2015-May-25 09:33N 39°53' W 075°11'0 0.0
2015-May-25 08:33N 39°53' W 075°11'0 0.0
2015-May-25 07:33N 39°53' W 075°11'0 0.0
2015-May-25 06:33N 39°53' W 075°11'0 0.0
2015-May-25 05:33N 39°53' W 075°11'0 0.0
2015-May-25 04:33N 39°53' W 075°11'1 1.3
2015-May-25 03:33N 39°53' W 075°10'0 0.0
2015-May-25 02:33N 39°53' W 075°10'2 1.5
2015-May-25 01:33N 39°54' W 075°08'5 5.2
2015-May-25 00:33N 39°59' W 075°06'2 1.5
2015-May-24 23:33N 39°58' W 075°07'1 1.4
2015-May-24 22:33N 39°57' W 075°08'4 4.2
2015-May-24 21:33N 39°53' W 075°11'0 0.0
2015-May-24 20:33N 39°53' W 075°11'0 0.0
2015-May-24 19:33N 39°53' W 075°11'0 0.0
2015-May-24 18:33N 39°53' W 075°11'0 0.0
2015-May-24 17:33N 39°53' W 075°11'0 0.0
2015-May-24 16:33N 39°53' W 075°11'0 0.0
2015-May-24 15:33N 39°53' W 075°11'0 0.0
2015-May-24 14:33N 39°53' W 075°11'0 0.0
2015-May-24 13:33N 39°53' W 075°11'0 0.0
2015-May-24 12:33N 39°53' W 075°11'4 3.6
2015-May-24 11:33N 39°51' W 075°15'1 1.1
2015-May-24 10:33N 39°51' W 075°16'5 4.6
2015-May-24 09:33N 39°53' W 075°11'0 0.0
2015-May-24 08:33N 39°53' W 075°11'0 0.0
2015-May-24 07:32N 39°53' W 075°11'0 0.0
2015-May-24 06:33N 39°53' W 075°11'0 0.0
2015-May-24 05:33N 39°53' W 075°11'1 1.4
2015-May-24 04:33N 39°53' W 075°09'1 1.4
2015-May-24 03:34N 39°53' W 075°11'0 0.0
2015-May-24 02:33N 39°53' W 075°11'0 0.0
2015-May-24 01:34N 39°53' W 075°11'0 0.1
2015-May-24 00:34N 39°53' W 075°11'2 2.2
2015-May-23 23:34N 39°52' W 075°13'2 2.2
2015-May-23 22:33N 39°53' W 075°11'0 0.0
2015-May-23 21:34N 39°53' W 075°11'0 0.0
2015-May-23 20:34N 39°53' W 075°11'1 1.4
2015-May-23 19:34N 39°52' W 075°13'10 9.7
2015-May-23 18:33N 39°49' W 075°24'5 4.6
2015-May-23 17:32N 39°51' W 075°19'5 4.5
2015-May-23 16:30N 39°49' W 075°24'0 0.4
2015-May-23 15:30N 39°49' W 075°25'0 0.0
2015-May-23 14:28N 39°49' W 075°25'2 1.7
2015-May-23 13:15N 39°50' W 075°23'5 7.3
2015-May-23 12:33N 39°51' W 075°16'0 0.4
2015-May-23 11:33N 39°51' W 075°16'0 0.0
2015-May-23 10:33N 39°51' W 075°16'5 5.1
2015-May-23 09:33N 39°53' W 075°10'0 0.0
2015-May-23 08:34N 39°53' W 075°10'1 1.3
2015-May-23 07:34N 39°53' W 075°11'0 0.2
2015-May-23 06:34N 39°53' W 075°11'0 0.0
2015-May-23 05:34N 39°53' W 075°11'0 0.0
2015-May-23 04:34N 39°53' W 075°11'0 0.0
2015-May-23 03:33N 39°53' W 075°11'0 0.0
2015-May-23 02:34N 39°53' W 075°11'0 0.0
2015-May-23 01:33N 39°53' W 075°11'0 0.0
2015-May-23 00:34N 39°53' W 075°11'0 0.0
2015-May-22 23:34N 39°53' W 075°11'7 6.5
2015-May-22 22:33N 39°51' W 075°19'1 1.3
2015-May-22 21:34N 39°51' W 075°18'6 5.5
2015-May-22 20:34N 39°53' W 075°11'0 0.0
2015-May-22 19:34N 39°53' W 075°11'0 0.0
2015-May-22 18:34N 39°53' W 075°11'0 0.0
2015-May-22 17:33N 39°53' W 075°11'0 0.0
2015-May-22 16:33N 39°53' W 075°11'0 0.0
2015-May-22 15:33N 39°53' W 075°11'0 0.0
2015-May-22 14:33N 39°53' W 075°11'0 0.0
2015-May-22 13:34N 39°53' W 075°11'0 0.0
2015-May-22 12:33N 39°53' W 075°11'5 4.6
2015-May-22 11:34N 39°51' W 075°16'0 0.0
2015-May-22 10:34N 39°51' W 075°16'1 0.7
2015-May-22 09:33N 39°51' W 075°15'4 3.8
2015-May-22 08:33N 39°53' W 075°11'0 0.0
2015-May-22 07:34N 39°53' W 075°11'0 0.0
2015-May-22 06:34N 39°53' W 075°11'0 0.0
2015-May-22 05:33N 39°53' W 075°11'0 0.0
2015-May-22 04:31N 39°53' W 075°11'0 0.0
2015-May-22 03:33N 39°53' W 075°11'0 0.0
2015-May-22 02:34N 39°53' W 075°11'0 0.0
2015-May-22 01:33N 39°53' W 075°11'1 1.2
2015-May-22 00:34N 39°52' W 075°12'3 3.3
2015-May-21 23:34N 39°51' W 075°16'2 1.8
2015-May-21 22:34N 39°52' W 075°14'1 0.6
2015-May-21 21:33N 39°51' W 075°14'3 2.7
2015-May-21 20:33N 39°53' W 075°11'3 2.8
2015-May-21 19:34N 39°54' W 075°08'3 2.8
2015-May-21 18:34N 39°53' W 075°11'0 0.0
2015-May-21 17:34N 39°53' W 075°11'0 0.0
2015-May-21 16:33N 39°53' W 075°11'0 0.0
2015-May-21 15:34N 39°53' W 075°11'0 0.0
2015-May-21 14:34N 39°53' W 075°11'0 0.0
2015-May-21 13:34N 39°53' W 075°11'1 1.2
2015-May-21 12:33N 39°52' W 075°12'3 3.3
2015-May-21 11:33N 39°51' W 075°16'2 2.0
2015-May-21 10:33N 39°51' W 075°19'1 1.4
2015-May-21 09:33N 39°51' W 075°17'3 3.0
2015-May-21 08:34N 39°52' W 075°13'2 2.0
2015-May-21 07:34N 39°53' W 075°11'0 0.0
2015-May-21 06:33N 39°53' W 075°11'0 0.0
2015-May-21 05:33N 39°53' W 075°11'0 0.0
2015-May-21 04:34N 39°53' W 075°11'0 0.0
2015-May-21 03:34N 39°53' W 075°11'0 0.0
2015-May-21 02:33N 39°53' W 075°11'0 0.0
2015-May-21 01:33N 39°53' W 075°11'0 0.0
2015-May-21 00:33N 39°53' W 075°11'0 0.0
2015-May-20 23:33N 39°53' W 075°11'0 0.0
2015-May-20 22:33N 39°53' W 075°11'3 3.2
2015-May-20 21:34N 39°51' W 075°14'0 0.5
2015-May-20 20:34N 39°51' W 075°15'0 0.0
2015-May-20 19:33N 39°51' W 075°15'0 0.0
2015-May-20 18:34N 39°51' W 075°15'1 0.6
2015-May-20 17:33N 39°51' W 075°16'0 0.0
2015-May-20 16:33N 39°51' W 075°16'0 0.0
2015-May-20 15:33N 39°51' W 075°16'0 0.0
2015-May-20 14:33N 39°51' W 075°16'0 0.0
2015-May-20 13:33N 39°51' W 075°16'0 0.2
2015-May-20 12:34N 39°51' W 075°16'0 0.2
2015-May-20 11:34N 39°51' W 075°16'0 0.0
2015-May-20 10:34N 39°51' W 075°16'0 0.3
2015-May-20 09:33N 39°51' W 075°16'2 1.9
2015-May-20 08:33N 39°51' W 075°19'2 2.3
2015-May-20 07:34N 39°51' W 075°16'0 0.0
2015-May-20 06:33N 39°51' W 075°16'0 0.0
2015-May-20 05:33N 39°51' W 075°16'0 0.0
2015-May-20 04:34N 39°51' W 075°16'0 0.0
2015-May-20 03:33N 39°51' W 075°16'0 0.0
2015-May-20 02:34N 39°51' W 075°16'0 0.0
2015-May-20 01:34N 39°51' W 075°16'4 3.7
2015-May-20 00:34N 39°53' W 075°12'4 4.1
2015-May-19 23:34N 39°56' W 075°08'8 8.1
2015-May-19 22:34N 40°01' W 075°00'9 8.4
2015-May-19 21:33N 40°06' W 074°51'5 4.4
2015-May-19 20:29N 40°08' W 074°45'8 2.9
2015-May-19 17:34N 40°04' W 074°55'1211.8
2015-May-19 16:34N 39°58' W 075°08'9 9.1
2015-May-19 15:33N 39°51' W 075°16'0 0.0
2015-May-19 14:33N 39°51' W 075°16'0 0.0
2015-May-19 13:33N 39°51' W 075°16'0 0.0
2015-May-19 12:33N 39°51' W 075°16'0 0.0
2015-May-19 11:33N 39°51' W 075°16'0 0.0
2015-May-19 10:33N 39°51' W 075°16'0 0.2
2015-May-19 09:33N 39°51' W 075°16'0 0.2
2015-May-19 08:33N 39°51' W 075°16'0 0.1
2015-May-19 07:33N 39°51' W 075°16'3 2.9
2015-May-19 06:33N 39°51' W 075°19'2 2.4
2015-May-19 05:33N 39°51' W 075°16'1 0.5
2015-May-19 04:33N 39°51' W 075°16'0 0.0
2015-May-19 03:33N 39°51' W 075°16'3 3.1
2015-May-19 02:33N 39°51' W 075°20'3 3.4
2015-May-19 01:33N 39°49' W 075°23'6 6.3
2015-May-19 00:33N 39°51' W 075°16'0 0.0
2015-May-18 23:33N 39°51' W 075°16'0 0.0
2015-May-18 22:33N 39°51' W 075°16'0 0.0
2015-May-18 21:33N 39°51' W 075°16'0 0.0
2015-May-18 20:33N 39°51' W 075°16'0 0.0
2015-May-18 19:33N 39°51' W 075°16'0 0.0
2015-May-18 18:33N 39°51' W 075°16'0 0.0
2015-May-18 17:33N 39°51' W 075°16'0 0.0
2015-May-18 16:33N 39°51' W 075°16'0 0.0
2015-May-18 15:33N 39°51' W 075°16'0 0.0
2015-May-18 14:33N 39°51' W 075°16'0 0.0
2015-May-18 13:33N 39°51' W 075°16'0 0.0
2015-May-18 12:34N 39°51' W 075°16'0 0.1
2015-May-18 11:33N 39°51' W 075°16'0 0.1
2015-May-18 10:33N 39°51' W 075°16'0 0.0
2015-May-18 09:33N 39°51' W 075°16'2 2.3
2015-May-18 08:33N 39°52' W 075°13'9 9.0
2015-May-18 07:33N 39°59' W 075°05'0 0.5
2015-May-18 06:33N 39°59' W 075°06'3 3.5
2015-May-18 05:34N 39°56' W 075°08'3 3.3
2015-May-18 04:34N 39°53' W 075°11'0 0.0
2015-May-18 03:33N 39°53' W 075°11'0 0.0
2015-May-18 02:33N 39°53' W 075°11'2 2.0
2015-May-18 01:34N 39°52' W 075°13'1111.3
2015-May-18 00:33N 39°47' W 075°27'6 5.5
2015-May-17 23:33N 39°43' W 075°31'0 0.1
2015-May-17 22:34N 39°43' W 075°31'0 0.1
2015-May-17 21:34N 39°43' W 075°32'0 0.0
2015-May-17 20:33N 39°43' W 075°32'0 0.0
2015-May-17 19:33N 39°43' W 075°32'5 5.4
2015-May-17 18:34N 39°39' W 075°35'3 3.4
2015-May-17 17:33N 39°35' W 075°36'0 0.1
2015-May-17 16:34N 39°35' W 075°35'5 4.7
2015-May-17 15:33N 39°39' W 075°33'4 3.8
2015-May-17 14:33N 39°43' W 075°31'0 0.0
2015-May-17 13:34N 39°43' W 075°31'0 0.0
2015-May-17 12:33N 39°43' W 075°31'0 0.0
2015-May-17 11:33N 39°43' W 075°31'0 0.0
2015-May-17 10:33N 39°43' W 075°31'0 0.0
2015-May-17 09:34N 39°43' W 075°31'0 0.0
2015-May-17 08:33N 39°43' W 075°31'0 0.0
2015-May-17 07:33N 39°43' W 075°31'8 7.7
2015-May-17 06:34N 39°49' W 075°24'2 2.2
2015-May-17 05:33N 39°50' W 075°22'2 2.4
2015-May-17 04:34N 39°51' W 075°19'6 5.7
2015-May-17 03:33N 39°48' W 075°25'7 6.6
2015-May-17 02:33N 39°43' W 075°31'0 0.0
2015-May-17 01:33N 39°43' W 075°31'0 0.0
2015-May-17 00:33N 39°43' W 075°31'0 0.1
2015-May-16 23:33N 39°43' W 075°31'0 0.3
2015-May-16 22:33N 39°43' W 075°32'1 1.4
2015-May-16 21:34N 39°42' W 075°31'7 6.9
2015-May-16 20:34N 39°35' W 075°34'8 8.0
2015-May-16 19:33N 39°43' W 075°32'0 0.0
2015-May-16 18:33N 39°43' W 075°32'7 6.8
2015-May-16 17:33N 39°48' W 075°26'6 5.8
2015-May-16 16:33N 39°51' W 075°19'4 3.8
2015-May-16 15:34N 39°51' W 075°14'3 3.1
2015-May-16 14:34N 39°53' W 075°11'0 0.0
2015-May-16 13:33N 39°53' W 075°11'0 0.0
2015-May-16 12:34N 39°53' W 075°11'0 0.0
2015-May-16 11:33N 39°53' W 075°11'0 0.0
2015-May-16 10:34N 39°53' W 075°11'0 0.0
2015-May-16 09:33N 39°53' W 075°11'0 0.0
2015-May-16 08:34N 39°53' W 075°11'0 0.0
2015-May-16 07:33N 39°53' W 075°11'0 0.0
2015-May-16 06:34N 39°53' W 075°11'0 0.0
2015-May-16 05:33N 39°53' W 075°11'0 0.0
2015-May-16 04:34N 39°53' W 075°11'0 0.0
2015-May-16 03:33N 39°53' W 075°11'  
Track history (hours):
 
Tides and Currents Weather Stations Pressure Air Temp Water Temp Dewpoint Dewpoint Depression Visibility Wind Speed Wind Dir Waves Ship Positions

Madeline

Owner: TUG MADELINE, LLC, NEW CASTLE, DE. More information available from US FCC via Universal Licensing System and Coast Guard Vessel Documentation Center.

Last reported at 2015-May-26 03:33 UTC. Time now 2015-May-26 03:41 UTC.
Position N 39°53' W 075°11'.

; draft 4.6 m.

Type: Tug. MMSI: 367335830.

Date/timePositionNaut miles runAvg speedWind from/ knotsBaromVisibWave heightAir tempDewpointWater temp
2015-May-26 03:33N 39°53' W 075°11'0 0.0
2015-May-26 02:33N 39°53' W 075°11'0 0.0
2015-May-26 01:33N 39°53' W 075°11'0 0.0
2015-May-26 00:33N 39°53' W 075°11'0 0.0
2015-May-25 23:33N 39°53' W 075°11'0 0.0
2015-May-25 22:33N 39°53' W 075°11'0 0.0
2015-May-25 21:33N 39°53' W 075°11'0 0.0
2015-May-25 20:33N 39°53' W 075°11'0 0.0
2015-May-25 19:33N 39°53' W 075°11'0 0.0
2015-May-25 18:33N 39°53' W 075°11'0 0.0
2015-May-25 17:33N 39°53' W 075°11'0 0.0
2015-May-25 16:33N 39°53' W 075°11'0 0.0
2015-May-25 15:33N 39°53' W 075°11'0 0.0
2015-May-25 14:33N 39°53' W 075°11'0 0.0
2015-May-25 13:33N 39°53' W 075°11'0 0.0
2015-May-25 12:33N 39°53' W 075°11'0 0.0
2015-May-25 11:33N 39°53' W 075°11'0 0.0
2015-May-25 10:33N 39°53' W 075°11'0 0.0
2015-May-25 09:33N 39°53' W 075°11'0 0.0
2015-May-25 08:33N 39°53' W 075°11'0 0.0
2015-May-25 07:33N 39°53' W 075°11'0 0.0
2015-May-25 06:33N 39°53' W 075°11'0 0.0
2015-May-25 05:33N 39°53' W 075°11'0 0.0
2015-May-25 04:33N 39°53' W 075°11'1 1.3
2015-May-25 03:33N 39°53' W 075°10'0 0.0
2015-May-25 02:33N 39°53' W 075°10'2 1.5
2015-May-25 01:33N 39°54' W 075°08'5 5.2
2015-May-25 00:33N 39°59' W 075°06'2 1.5
2015-May-24 23:33N 39°58' W 075°07'1 1.4
2015-May-24 22:33N 39°57' W 075°08'4 4.2
2015-May-24 21:33N 39°53' W 075°11'0 0.0
2015-May-24 20:33N 39°53' W 075°11'0 0.0
2015-May-24 19:33N 39°53' W 075°11'0 0.0
2015-May-24 18:33N 39°53' W 075°11'0 0.0
2015-May-24 17:33N 39°53' W 075°11'0 0.0
2015-May-24 16:33N 39°53' W 075°11'0 0.0
2015-May-24 15:33N 39°53' W 075°11'0 0.0
2015-May-24 14:33N 39°53' W 075°11'0 0.0
2015-May-24 13:33N 39°53' W 075°11'0 0.0
2015-May-24 12:33N 39°53' W 075°11'4 3.6
2015-May-24 11:33N 39°51' W 075°15'1 1.1
2015-May-24 10:33N 39°51' W 075°16'5 4.6
2015-May-24 09:33N 39°53' W 075°11'0 0.0
2015-May-24 08:33N 39°53' W 075°11'0 0.0
2015-May-24 07:32N 39°53' W 075°11'0 0.0
2015-May-24 06:33N 39°53' W 075°11'0 0.0
2015-May-24 05:33N 39°53' W 075°11'1 1.4
2015-May-24 04:33N 39°53' W 075°09'1 1.4
2015-May-24 03:34N 39°53' W 075°11'0 0.0
2015-May-24 02:33N 39°53' W 075°11'0 0.0
2015-May-24 01:34N 39°53' W 075°11'0 0.1
2015-May-24 00:34N 39°53' W 075°11'2 2.2
2015-May-23 23:34N 39°52' W 075°13'2 2.2
2015-May-23 22:33N 39°53' W 075°11'0 0.0
2015-May-23 21:34N 39°53' W 075°11'0 0.0
2015-May-23 20:34N 39°53' W 075°11'1 1.4
2015-May-23 19:34N 39°52' W 075°13'10 9.7
2015-May-23 18:33N 39°49' W 075°24'5 4.6
2015-May-23 17:32N 39°51' W 075°19'5 4.5
2015-May-23 16:30N 39°49' W 075°24'0 0.4
2015-May-23 15:30N 39°49' W 075°25'0 0.0
2015-May-23 14:28N 39°49' W 075°25'2 1.7
2015-May-23 13:15N 39°50' W 075°23'5 7.3
2015-May-23 12:33N 39°51' W 075°16'0 0.4
2015-May-23 11:33N 39°51' W 075°16'0 0.0
2015-May-23 10:33N 39°51' W 075°16'5 5.1
2015-May-23 09:33N 39°53' W 075°10'0 0.0
2015-May-23 08:34N 39°53' W 075°10'1 1.3
2015-May-23 07:34N 39°53' W 075°11'0 0.2
2015-May-23 06:34N 39°53' W 075°11'0 0.0
2015-May-23 05:34N 39°53' W 075°11'0 0.0
2015-May-23 04:34N 39°53' W 075°11'0 0.0
2015-May-23 03:33N 39°53' W 075°11'0 0.0
2015-May-23 02:34N 39°53' W 075°11'0 0.0
2015-May-23 01:33N 39°53' W 075°11'0 0.0
2015-May-23 00:34N 39°53' W 075°11'0 0.0
2015-May-22 23:34N 39°53' W 075°11'7 6.5
2015-May-22 22:33N 39°51' W 075°19'1 1.3
2015-May-22 21:34N 39°51' W 075°18'6 5.5
2015-May-22 20:34N 39°53' W 075°11'0 0.0
2015-May-22 19:34N 39°53' W 075°11'0 0.0
2015-May-22 18:34N 39°53' W 075°11'0 0.0
2015-May-22 17:33N 39°53' W 075°11'0 0.0
2015-May-22 16:33N 39°53' W 075°11'0 0.0
2015-May-22 15:33N 39°53' W 075°11'0 0.0
2015-May-22 14:33N 39°53' W 075°11'0 0.0
2015-May-22 13:34N 39°53' W 075°11'0 0.0
2015-May-22 12:33N 39°53' W 075°11'5 4.6
2015-May-22 11:34N 39°51' W 075°16'0 0.0
2015-May-22 10:34N 39°51' W 075°16'1 0.7
2015-May-22 09:33N 39°51' W 075°15'4 3.8
2015-May-22 08:33N 39°53' W 075°11'0 0.0
2015-May-22 07:34N 39°53' W 075°11'0 0.0
2015-May-22 06:34N 39°53' W 075°11'0 0.0
2015-May-22 05:33N 39°53' W 075°11'0 0.0
2015-May-22 04:31N 39°53' W 075°11'0 0.0
2015-May-22 03:33N 39°53' W 075°11'0 0.0
2015-May-22 02:34N 39°53' W 075°11'0 0.0
2015-May-22 01:33N 39°53' W 075°11'1 1.2
2015-May-22 00:34N 39°52' W 075°12'3 3.3
2015-May-21 23:34N 39°51' W 075°16'2 1.8
2015-May-21 22:34N 39°52' W 075°14'1 0.6
2015-May-21 21:33N 39°51' W 075°14'3 2.7
2015-May-21 20:33N 39°53' W 075°11'3 2.8
2015-May-21 19:34N 39°54' W 075°08'3 2.8
2015-May-21 18:34N 39°53' W 075°11'0 0.0
2015-May-21 17:34N 39°53' W 075°11'0 0.0
2015-May-21 16:33N 39°53' W 075°11'0 0.0
2015-May-21 15:34N 39°53' W 075°11'0 0.0
2015-May-21 14:34N 39°53' W 075°11'0 0.0
2015-May-21 13:34N 39°53' W 075°11'1 1.2
2015-May-21 12:33N 39°52' W 075°12'3 3.3
2015-May-21 11:33N 39°51' W 075°16'2 2.0
2015-May-21 10:33N 39°51' W 075°19'1 1.4
2015-May-21 09:33N 39°51' W 075°17'3 3.0
2015-May-21 08:34N 39°52' W 075°13'2 2.0
2015-May-21 07:34N 39°53' W 075°11'0 0.0
2015-May-21 06:33N 39°53' W 075°11'0 0.0
2015-May-21 05:33N 39°53' W 075°11'0 0.0
2015-May-21 04:34N 39°53' W 075°11'0 0.0
2015-May-21 03:34N 39°53' W 075°11'0 0.0
2015-May-21 02:33N 39°53' W 075°11'0 0.0
2015-May-21 01:33N 39°53' W 075°11'0 0.0
2015-May-21 00:33N 39°53' W 075°11'0 0.0
2015-May-20 23:33N 39°53' W 075°11'0 0.0
2015-May-20 22:33N 39°53' W 075°11'3 3.2
2015-May-20 21:34N 39°51' W 075°14'0 0.5
2015-May-20 20:34N 39°51' W 075°15'0 0.0
2015-May-20 19:33N 39°51' W 075°15'0 0.0
2015-May-20 18:34N 39°51' W 075°15'1 0.6
2015-May-20 17:33N 39°51' W 075°16'0 0.0
2015-May-20 16:33N 39°51' W 075°16'0 0.0
2015-May-20 15:33N 39°51' W 075°16'0 0.0
2015-May-20 14:33N 39°51' W 075°16'0 0.0
2015-May-20 13:33N 39°51' W 075°16'0 0.2
2015-May-20 12:34N 39°51' W 075°16'0 0.2
2015-May-20 11:34N 39°51' W 075°16'0 0.0
2015-May-20 10:34N 39°51' W 075°16'0 0.3
2015-May-20 09:33N 39°51' W 075°16'2 1.9
2015-May-20 08:33N 39°51' W 075°19'2 2.3
2015-May-20 07:34N 39°51' W 075°16'0 0.0
2015-May-20 06:33N 39°51' W 075°16'0 0.0
2015-May-20 05:33N 39°51' W 075°16'0 0.0
2015-May-20 04:34N 39°51' W 075°16'0 0.0
2015-May-20 03:33N 39°51' W 075°16'0 0.0
2015-May-20 02:34N 39°51' W 075°16'0 0.0
2015-May-20 01:34N 39°51' W 075°16'4 3.7
2015-May-20 00:34N 39°53' W 075°12'4 4.1
2015-May-19 23:34N 39°56' W 075°08'8 8.1
2015-May-19 22:34N 40°01' W 075°00'9 8.4
2015-May-19 21:33N 40°06' W 074°51'5 4.4
2015-May-19 20:29N 40°08' W 074°45'8 2.9
2015-May-19 17:34N 40°04' W 074°55'1211.8
2015-May-19 16:34N 39°58' W 075°08'9 9.1
2015-May-19 15:33N 39°51' W 075°16'0 0.0
2015-May-19 14:33N 39°51' W 075°16'0 0.0
2015-May-19 13:33N 39°51' W 075°16'0 0.0
2015-May-19 12:33N 39°51' W 075°16'0 0.0
2015-May-19 11:33N 39°51' W 075°16'0 0.0
2015-May-19 10:33N 39°51' W 075°16'0 0.2
2015-May-19 09:33N 39°51' W 075°16'0 0.2
2015-May-19 08:33N 39°51' W 075°16'0 0.1
2015-May-19 07:33N 39°51' W 075°16'3 2.9
2015-May-19 06:33N 39°51' W 075°19'2 2.4
2015-May-19 05:33N 39°51' W 075°16'1 0.5
2015-May-19 04:33N 39°51' W 075°16'0 0.0
2015-May-19 03:33N 39°51' W 075°16'3 3.1
2015-May-19 02:33N 39°51' W 075°20'3 3.4
2015-May-19 01:33N 39°49' W 075°23'6 6.3
2015-May-19 00:33N 39°51' W 075°16'0 0.0
2015-May-18 23:33N 39°51' W 075°16'0 0.0
2015-May-18 22:33N 39°51' W 075°16'0 0.0
2015-May-18 21:33N 39°51' W 075°16'0 0.0
2015-May-18 20:33N 39°51' W 075°16'0 0.0
2015-May-18 19:33N 39°51' W 075°16'0 0.0
2015-May-18 18:33N 39°51' W 075°16'0 0.0
2015-May-18 17:33N 39°51' W 075°16'0 0.0
2015-May-18 16:33N 39°51' W 075°16'0 0.0
2015-May-18 15:33N 39°51' W 075°16'0 0.0
2015-May-18 14:33N 39°51' W 075°16'0 0.0
2015-May-18 13:33N 39°51' W 075°16'0 0.0
2015-May-18 12:34N 39°51' W 075°16'0 0.1
2015-May-18 11:33N 39°51' W 075°16'0 0.1
2015-May-18 10:33N 39°51' W 075°16'0 0.0
2015-May-18 09:33N 39°51' W 075°16'2 2.3
2015-May-18 08:33N 39°52' W 075°13'9 9.0
2015-May-18 07:33N 39°59' W 075°05'0 0.5
2015-May-18 06:33N 39°59' W 075°06'3 3.5
2015-May-18 05:34N 39°56' W 075°08'3 3.3
2015-May-18 04:34N 39°53' W 075°11'0 0.0
2015-May-18 03:33N 39°53' W 075°11'0 0.0
2015-May-18 02:33N 39°53' W 075°11'2 2.0
2015-May-18 01:34N 39°52' W 075°13'1111.3
2015-May-18 00:33N 39°47' W 075°27'6 5.5
2015-May-17 23:33N 39°43' W 075°31'0 0.1
2015-May-17 22:34N 39°43' W 075°31'0 0.1
2015-May-17 21:34N 39°43' W 075°32'0 0.0
2015-May-17 20:33N 39°43' W 075°32'0 0.0
2015-May-17 19:33N 39°43' W 075°32'5 5.4
2015-May-17 18:34N 39°39' W 075°35'3 3.4
2015-May-17 17:33N 39°35' W 075°36'0 0.1
2015-May-17 16:34N 39°35' W 075°35'5 4.7
2015-May-17 15:33N 39°39' W 075°33'4 3.8
2015-May-17 14:33N 39°43' W 075°31'0 0.0
2015-May-17 13:34N 39°43' W 075°31'0 0.0
2015-May-17 12:33N 39°43' W 075°31'0 0.0
2015-May-17 11:33N 39°43' W 075°31'0 0.0
2015-May-17 10:33N 39°43' W 075°31'0 0.0
2015-May-17 09:34N 39°43' W 075°31'0 0.0
2015-May-17 08:33N 39°43' W 075°31'0 0.0
2015-May-17 07:33N 39°43' W 075°31'8 7.7
2015-May-17 06:34N 39°49' W 075°24'2 2.2
2015-May-17 05:33N 39°50' W 075°22'2 2.4
2015-May-17 04:34N 39°51' W 075°19'6 5.7
2015-May-17 03:33N 39°48' W 075°25'7 6.6
2015-May-17 02:33N 39°43' W 075°31'0 0.0
2015-May-17 01:33N 39°43' W 075°31'0 0.0
2015-May-17 00:33N 39°43' W 075°31'0 0.1
2015-May-16 23:33N 39°43' W 075°31'0 0.3
2015-May-16 22:33N 39°43' W 075°32'1 1.4
2015-May-16 21:34N 39°42' W 075°31'7 6.9
2015-May-16 20:34N 39°35' W 075°34'8 8.0
2015-May-16 19:33N 39°43' W 075°32'0 0.0
2015-May-16 18:33N 39°43' W 075°32'7 6.8
2015-May-16 17:33N 39°48' W 075°26'6 5.8
2015-May-16 16:33N 39°51' W 075°19'4 3.8
2015-May-16 15:34N 39°51' W 075°14'3 3.1
2015-May-16 14:34N 39°53' W 075°11'0 0.0
2015-May-16 13:33N 39°53' W 075°11'0 0.0
2015-May-16 12:34N 39°53' W 075°11'0 0.0
2015-May-16 11:33N 39°53' W 075°11'0 0.0
2015-May-16 10:34N 39°53' W 075°11'0 0.0
2015-May-16 09:33N 39°53' W 075°11'0 0.0
2015-May-16 08:34N 39°53' W 075°11'0 0.0
2015-May-16 07:33N 39°53' W 075°11'0 0.0
2015-May-16 06:34N 39°53' W 075°11'0 0.0
2015-May-16 05:33N 39°53' W 075°11'0 0.0
2015-May-16 04:34N 39°53' W 075°11'0 0.0
2015-May-16 03:33N 39°53' W 075°11'  

Dump ship's entire track history